createdAt,value
2022-11-23T00:30:00.338Z,80.00
2022-11-23T00:32:36.408Z,79.87
2022-11-23T00:35:14.490Z,79.83
2022-11-23T00:37:59.777Z,79.59
2022-11-23T00:41:18.580Z,79.46
2022-11-23T00:43:38.264Z,79.13
2022-11-23T00:46:37.342Z,79.06
2022-11-23T00:53:04.654Z,78.96
2022-11-23T01:20:51.174Z,79.44
2022-11-23T01:23:32.798Z,79.48
2022-11-23T01:26:11.504Z,79.49
2022-11-23T01:28:54.219Z,79.58
2022-11-23T01:31:48.828Z,79.59
2022-11-23T01:34:54.166Z,79.59
2022-11-23T01:40:44.269Z,79.59
2022-11-23T01:43:22.692Z,79.57
2022-11-23T01:46:22.914Z,79.56
2022-11-23T01:49:40.940Z,79.50
2022-11-23T02:32:13.979Z,77.37
2022-11-23T02:34:52.802Z,77.51
2022-11-23T02:37:28.378Z,77.54
2022-11-23T02:40:09.799Z,77.57
2022-11-23T02:43:14.086Z,77.64
2022-11-23T02:46:17.111Z,77.71
2022-11-23T02:49:22.279Z,77.83
2022-11-23T02:55:58.764Z,77.77
2022-11-23T03:19:33.478Z,76.90
2022-11-23T03:22:08.042Z,76.76
2022-11-23T03:24:40.233Z,76.72
2022-11-23T03:27:19.871Z,76.38
2022-11-23T03:29:52.875Z,76.02
2022-11-23T03:32:47.059Z,75.92
2022-11-23T03:39:09.043Z,75.35
2022-11-23T03:41:54.648Z,74.97
2022-11-23T03:45:20.067Z,74.94
2022-11-23T03:48:36.089Z,74.88
2022-11-23T03:57:55.522Z,74.87
2022-11-23T04:00:23.638Z,74.93
2022-11-23T04:02:51.638Z,75.03
2022-11-23T04:05:30.197Z,74.92
2022-11-23T04:08:06.197Z,75.02
2022-11-23T04:10:34.343Z,75.04
2022-11-23T04:13:09.215Z,75.10
2022-11-23T04:15:37.517Z,75.07
2022-11-23T04:18:06.126Z,75.21
2022-11-23T04:20:33.967Z,75.11
2022-11-23T04:23:01.801Z,75.10
2022-11-23T04:25:30.079Z,75.32
2022-11-23T04:27:58.740Z,75.42
2022-11-23T04:30:26.969Z,75.42
2022-11-23T04:32:56.698Z,75.30
2022-11-23T04:35:24.676Z,75.32
2022-11-23T04:37:53.668Z,75.53
2022-11-23T04:40:23.279Z,75.45
2022-11-23T04:43:00.351Z,75.28
2022-11-23T04:45:25.739Z,75.71
2022-11-23T04:47:54.424Z,75.67
2022-11-23T04:50:23.208Z,75.71
2022-11-23T04:52:52.615Z,75.53
2022-11-23T04:55:22.155Z,75.55
2022-11-23T04:57:51.742Z,75.51
2022-11-23T05:00:19.828Z,75.51
2022-11-23T05:02:48.129Z,75.47
2022-11-23T05:05:17.871Z,75.38
2022-11-23T05:07:45.481Z,75.06
2022-11-23T05:10:13.329Z,75.44
2022-11-23T05:12:43.141Z,75.28
2022-11-23T05:15:15.865Z,75.24
2022-11-23T05:17:46.302Z,75.23
2022-11-23T05:20:16.577Z,75.22
2022-11-23T05:22:46.174Z,75.13
2022-11-23T05:25:15.740Z,75.27
2022-11-23T05:27:44.876Z,75.13
2022-11-23T05:30:16.296Z,75.33
2022-11-23T05:32:45.996Z,75.41
2022-11-23T05:35:14.696Z,75.73
2022-11-23T05:37:42.484Z,75.72
2022-11-23T05:40:12.234Z,76.06
2022-11-23T05:42:40.190Z,76.06
2022-11-23T05:45:12.804Z,75.90
2022-11-23T05:47:42.444Z,75.72
2022-11-23T05:50:12.518Z,75.79
2022-11-23T05:52:42.523Z,76.04
2022-11-23T05:55:11.232Z,75.71
2022-11-23T05:57:39.748Z,75.68
2022-11-23T06:00:12.458Z,75.85
2022-11-23T06:02:44.680Z,75.87
2022-11-23T06:05:13.087Z,75.87
2022-11-23T06:07:42.869Z,75.77
2022-11-23T06:10:13.063Z,75.56
2022-11-23T06:12:43.035Z,75.59
2022-11-23T06:15:18.692Z,75.50
2022-11-23T06:17:49.422Z,75.59
2022-11-23T06:20:19.240Z,75.53
2022-11-23T06:22:55.042Z,75.56
2022-11-23T06:25:24.628Z,75.56
2022-11-23T06:27:56.653Z,75.40
2022-11-23T06:30:28.278Z,75.57
2022-11-23T06:32:58.060Z,75.58
2022-11-23T06:35:25.872Z,75.55
2022-11-23T06:37:54.309Z,75.50
2022-11-23T06:40:22.432Z,75.50
2022-11-23T06:42:52.770Z,75.49
2022-11-23T06:45:22.579Z,75.48
2022-11-23T06:47:55.906Z,75.59
2022-11-23T06:50:23.987Z,75.68
2022-11-23T06:52:57.014Z,75.70
2022-11-23T06:55:27.090Z,75.77
2022-11-23T06:57:58.431Z,75.46
2022-11-23T07:00:26.372Z,75.70
2022-11-23T07:02:56.060Z,75.85
2022-11-23T07:05:25.514Z,75.91
2022-11-23T07:07:54.478Z,75.92
2022-11-23T07:10:25.377Z,75.94
2022-11-23T07:12:55.125Z,75.96
2022-11-23T07:15:23.392Z,75.87
2022-11-23T07:17:54.595Z,75.81
2022-11-23T07:20:23.216Z,75.85
2022-11-23T07:23:02.896Z,75.90
2022-11-23T07:25:33.374Z,75.67
2022-11-23T07:28:02.460Z,75.80
2022-11-23T07:30:32.933Z,75.93
2022-11-23T07:33:04.468Z,75.74
2022-11-23T07:35:32.830Z,75.65
2022-11-23T07:38:01.055Z,75.71
2022-11-23T07:40:29.320Z,75.67
2022-11-23T07:43:02.309Z,75.59
2022-11-23T07:45:30.485Z,75.64
2022-11-23T07:48:03.688Z,75.79
2022-11-23T07:50:32.423Z,75.73
2022-11-23T07:53:03.369Z,75.86
2022-11-23T07:55:31.359Z,75.76
2022-11-23T07:57:59.850Z,75.74
2022-11-23T08:00:29.372Z,75.56
2022-11-23T08:03:26.276Z,75.60
2022-11-23T08:05:28.757Z,75.67
2022-11-23T08:08:01.265Z,75.68
2022-11-23T08:10:30.925Z,75.49
2022-11-23T08:13:00.357Z,75.52
2022-11-23T08:15:28.286Z,75.55
2022-11-23T08:17:59.027Z,75.19
2022-11-23T08:20:29.258Z,74.99
2022-11-23T08:22:57.971Z,74.89
2022-11-23T08:25:28.229Z,74.82
2022-11-23T08:28:02.440Z,74.50
2022-11-23T08:30:32.166Z,74.44
2022-11-23T08:33:06.451Z,74.31
2022-11-23T08:35:39.121Z,74.21
2022-11-23T08:38:09.712Z,74.13
2022-11-23T08:40:38.377Z,73.74
2022-11-23T08:43:06.876Z,73.82
2022-11-23T08:45:34.680Z,73.83
2022-11-23T08:48:05.126Z,73.93
2022-11-23T08:50:34.838Z,73.97
2022-11-23T08:53:02.987Z,74.00
2022-11-23T08:55:30.707Z,73.99
2022-11-23T08:57:59.759Z,73.92
2022-11-23T09:00:27.971Z,73.94
2022-11-23T09:02:58.420Z,74.01
2022-11-23T09:05:28.759Z,74.11
2022-11-23T09:08:01.618Z,74.15
2022-11-23T09:10:29.726Z,74.33
2022-11-23T09:12:59.048Z,74.41
2022-11-23T09:15:26.994Z,74.33
2022-11-23T09:17:56.115Z,74.27
2022-11-23T09:20:24.205Z,74.17
2022-11-23T09:22:53.975Z,74.05
2022-11-23T09:25:22.830Z,74.13
2022-11-23T09:27:59.253Z,74.10
2022-11-23T09:30:28.109Z,74.20
2022-11-23T09:32:57.776Z,74.21
2022-11-23T09:35:26.263Z,74.14
2022-11-23T09:37:58.551Z,74.03
2022-11-23T09:40:34.667Z,73.94
2022-11-23T09:43:31.861Z,74.21
2022-11-23T09:46:05.037Z,74.39
2022-11-23T09:49:04.327Z,74.45
2022-11-23T09:51:34.407Z,74.68
2022-11-23T09:54:13.448Z,74.79
2022-11-23T09:56:42.913Z,74.94
2022-11-23T09:59:32.060Z,75.02
2022-11-23T10:02:01.435Z,75.05
2022-11-23T10:04:35.815Z,75.07
2022-11-23T10:07:23.766Z,75.08
2022-11-23T10:10:21.484Z,75.05
2022-11-23T10:13:03.437Z,74.93
2022-11-23T10:15:39.326Z,74.99
2022-11-23T10:18:37.223Z,74.77
2022-11-23T10:21:31.740Z,74.76
2022-11-23T10:24:19.588Z,74.37
2022-11-23T10:26:49.931Z,74.28
2022-11-23T10:29:26.460Z,74.21
2022-11-23T10:31:57.303Z,74.23
2022-11-23T10:34:32.739Z,74.24
2022-11-23T10:37:00.966Z,74.24
2022-11-23T10:39:28.926Z,74.25
2022-11-23T10:42:01.408Z,74.57
2022-11-23T10:44:38.065Z,74.81
2022-11-23T10:47:06.169Z,74.86
2022-11-23T10:49:35.838Z,75.00
2022-11-23T10:52:32.652Z,75.23
2022-11-23T10:55:05.251Z,75.62
2022-11-23T10:57:43.230Z,75.72
2022-11-23T11:00:16.424Z,75.75
2022-11-23T11:02:48.146Z,75.88
2022-11-23T11:06:07.417Z,75.87
2022-11-23T11:08:16.769Z,75.84
2022-11-23T11:11:02.080Z,75.81
2022-11-23T11:13:43.465Z,75.89
2022-11-23T11:16:37.176Z,75.95
2022-11-23T11:19:27.515Z,75.90
2022-11-23T11:21:57.252Z,75.79
2022-11-23T11:24:42.232Z,75.72
2022-11-23T11:27:23.404Z,75.70
2022-11-23T11:29:59.376Z,75.71
2022-11-23T11:32:41.614Z,75.71
2022-11-23T11:35:23.695Z,75.68
2022-11-23T11:37:55.578Z,75.64
2022-11-23T11:40:46.850Z,75.71
2022-11-23T11:43:40.261Z,75.87
2022-11-23T11:46:31.284Z,75.97
2022-11-23T11:48:54.620Z,76.08
2022-11-23T11:51:42.527Z,76.11
2022-11-23T11:54:31.707Z,76.18
2022-11-23T11:57:08.530Z,76.35
2022-11-23T11:59:43.262Z,76.41
2022-11-23T12:02:27.399Z,76.48
2022-11-23T12:05:15.898Z,76.57
2022-11-23T12:08:12.422Z,76.71
2022-11-23T12:11:01.605Z,76.78
2022-11-23T12:13:33.261Z,76.86
2022-11-23T12:16:39.813Z,76.82
2022-11-23T12:19:18.978Z,76.87
2022-11-23T12:22:26.782Z,76.93
2022-11-23T12:25:18.734Z,76.96
2022-11-23T12:28:16.157Z,77.08
2022-11-23T12:31:21.876Z,77.31
2022-11-23T12:34:29.156Z,77.37
2022-11-23T12:37:14.724Z,77.48
2022-11-23T12:40:24.681Z,77.75
2022-11-23T12:43:04.093Z,77.78
2022-11-23T12:45:44.339Z,77.87
2022-11-23T12:48:32.707Z,78.01
2022-11-23T12:51:05.806Z,78.10
2022-11-23T12:54:02.152Z,78.11
2022-11-23T12:56:51.415Z,78.22
2022-11-23T12:59:24.943Z,78.36
2022-11-23T13:02:01.056Z,78.56
2022-11-23T13:04:46.810Z,78.62
2022-11-23T13:07:44.887Z,78.63
2022-11-23T13:10:33.459Z,78.47
2022-11-23T13:13:31.073Z,78.43
2022-11-23T13:16:36.428Z,78.22
2022-11-23T13:19:43.361Z,78.10
2022-11-23T13:22:15.668Z,77.93
2022-11-23T13:25:11.902Z,77.70
2022-11-23T13:27:50.843Z,77.66
2022-11-23T13:31:14.700Z,77.71
2022-11-23T13:33:28.530Z,77.68
2022-11-23T13:36:03.590Z,77.39
2022-11-23T13:38:50.274Z,77.24
2022-11-23T13:41:44.495Z,77.18
2022-11-23T13:44:30.481Z,77.19
2022-11-23T13:47:26.404Z,77.16
2022-11-23T13:50:32.866Z,77.21
2022-11-23T13:52:54.162Z,76.75
2022-11-23T13:55:32.779Z,76.98
2022-11-23T13:58:26.036Z,77.05
2022-11-23T14:00:57.156Z,76.92
2022-11-23T14:03:50.067Z,76.99
2022-11-23T14:06:35.115Z,76.93
2022-11-23T14:09:25.166Z,76.99
2022-11-23T14:12:07.108Z,77.05
2022-11-23T14:14:55.506Z,77.09
2022-11-23T14:18:14.775Z,77.20
2022-11-23T14:21:03.230Z,77.28
2022-11-23T14:24:19.879Z,77.42
2022-11-23T14:27:39.098Z,77.48
2022-11-23T14:30:20.316Z,77.62
2022-11-23T14:33:09.292Z,77.69
2022-11-23T14:36:12.814Z,77.77
2022-11-23T14:39:21.579Z,77.82
2022-11-23T14:42:01.714Z,77.91
2022-11-23T14:44:38.421Z,78.03
2022-11-23T14:47:11.692Z,78.09
2022-11-23T14:49:50.939Z,78.21
2022-11-23T14:52:23.546Z,78.30
2022-11-23T14:54:55.332Z,78.41
2022-11-23T14:57:29.565Z,78.50
2022-11-23T15:00:05.781Z,78.58
2022-11-23T15:02:39.607Z,78.70
2022-11-23T15:05:23.574Z,78.83
2022-11-23T15:08:08.720Z,79.00
2022-11-23T15:11:15.354Z,79.08
2022-11-23T15:13:45.890Z,79.31
2022-11-23T15:16:16.292Z,79.44
2022-11-23T15:18:47.919Z,79.59
2022-11-23T15:21:36.045Z,79.61
2022-11-23T15:24:05.014Z,80.08
2022-11-23T15:26:48.149Z,80.13
2022-11-23T15:29:03.916Z,80.11
2022-11-23T15:31:37.185Z,80.13
2022-11-23T15:34:17.026Z,80.18
2022-11-23T15:36:46.217Z,80.35
2022-11-23T15:39:21.462Z,80.42
2022-11-23T15:41:49.880Z,80.40
2022-11-23T15:44:25.674Z,80.49
2022-11-23T15:47:05.598Z,80.60
2022-11-23T15:49:40.375Z,80.68
2022-11-23T15:52:12.465Z,80.68
2022-11-23T15:54:40.486Z,80.74
2022-11-23T15:57:21.910Z,81.04
2022-11-23T15:59:57.306Z,81.16
2022-11-23T16:02:28.904Z,81.12
2022-11-23T16:05:13.863Z,81.14
2022-11-23T16:07:58.836Z,81.23
2022-11-23T16:10:32.774Z,81.21
2022-11-23T16:13:07.840Z,81.31
2022-11-23T16:15:42.049Z,81.24
2022-11-23T16:18:25.064Z,81.20
2022-11-23T16:20:59.596Z,81.22
2022-11-23T16:23:32.549Z,81.24
2022-11-23T16:26:04.039Z,81.21
2022-11-23T16:28:38.405Z,81.23
2022-11-23T16:31:06.668Z,81.23
2022-11-23T16:33:36.709Z,81.26
2022-11-23T16:36:05.351Z,81.24
2022-11-23T16:38:33.206Z,81.21
2022-11-23T16:41:00.791Z,81.21
2022-11-23T16:43:28.423Z,81.19
2022-11-23T16:45:56.161Z,81.20
2022-11-23T16:48:35.409Z,81.27
2022-11-23T16:51:03.217Z,81.24
2022-11-23T16:53:53.312Z,81.26
2022-11-23T16:56:12.980Z,81.30
2022-11-23T16:58:41.063Z,81.32
2022-11-23T17:01:16.953Z,81.45
2022-11-23T17:03:48.579Z,81.56
2022-11-23T17:06:17.953Z,81.63
2022-11-23T17:08:46.321Z,81.71
2022-11-23T17:11:20.335Z,81.86
2022-11-23T17:13:51.131Z,81.91
2022-11-23T17:16:23.531Z,82.03
2022-11-23T17:18:51.334Z,82.13
2022-11-23T17:21:19.246Z,82.26
2022-11-23T17:23:46.913Z,82.33
2022-11-23T17:26:37.227Z,82.41
2022-11-23T17:29:09.509Z,82.44
2022-11-23T17:31:37.447Z,82.53
2022-11-23T17:34:05.030Z,82.54
2022-11-23T17:36:34.029Z,82.67
2022-11-23T17:39:01.730Z,82.70
2022-11-23T17:41:29.619Z,82.67
2022-11-23T17:43:59.462Z,82.65
2022-11-23T17:46:31.460Z,82.80
2022-11-23T17:49:01.473Z,82.80
2022-11-23T17:51:29.577Z,82.88
2022-11-23T17:53:58.156Z,82.97
2022-11-23T17:56:26.660Z,83.04
2022-11-23T17:58:58.303Z,83.07
2022-11-23T18:01:28.817Z,83.12
2022-11-23T18:03:57.114Z,83.19
2022-11-23T18:06:24.972Z,83.25
2022-11-23T18:08:53.180Z,83.36
2022-11-23T18:11:22.241Z,83.46
2022-11-23T18:13:52.989Z,83.48
2022-11-23T18:16:23.724Z,83.53
2022-11-23T18:18:51.521Z,83.59
2022-11-23T18:21:22.006Z,83.75
2022-11-23T18:23:51.479Z,83.83
2022-11-23T18:26:30.275Z,83.89
2022-11-23T18:28:58.044Z,84.02
2022-11-23T18:31:26.285Z,84.17
2022-11-23T18:33:54.900Z,84.44
2022-11-23T18:36:22.941Z,84.66
2022-11-23T18:39:00.606Z,84.74
2022-11-23T18:44:28.844Z,84.92
2022-11-23T18:47:16.283Z,85.07
2022-11-23T18:49:44.004Z,85.16
2022-11-23T18:52:13.470Z,85.32
2022-11-23T18:54:41.564Z,85.28
2022-11-23T18:57:16.602Z,85.29
2022-11-23T18:59:57.950Z,85.31
2022-11-23T19:02:17.680Z,85.45
2022-11-23T19:04:45.324Z,85.60
2022-11-23T19:07:12.995Z,85.77
2022-11-23T19:09:41.628Z,85.88
2022-11-23T19:12:09.624Z,86.02
2022-11-23T19:14:39.063Z,86.11
2022-11-23T19:17:07.298Z,86.14
2022-11-23T19:19:37.239Z,86.18
2022-11-23T19:22:09.800Z,86.29
2022-11-23T19:24:43.852Z,86.15
2022-11-23T19:27:18.557Z,86.14
2022-11-23T19:29:48.937Z,86.16
2022-11-23T19:32:17.994Z,86.11
2022-11-23T19:34:46.211Z,86.12
2022-11-23T19:37:17.156Z,86.10
2022-11-23T19:39:57.488Z,86.09
2022-11-23T19:42:25.620Z,86.05
2022-11-23T19:44:53.481Z,86.05
2022-11-23T19:47:23.113Z,86.07
2022-11-23T19:49:51.057Z,85.99
2022-11-23T19:52:20.848Z,85.97
2022-11-23T19:55:05.565Z,85.93
2022-11-23T19:57:33.876Z,85.94
2022-11-23T20:00:03.031Z,86.05
2022-11-23T20:02:44.498Z,86.10
2022-11-23T20:08:50.298Z,86.13
2022-11-23T20:14:39.172Z,86.15
2022-11-23T20:17:08.829Z,86.14
2022-11-23T20:19:36.839Z,86.11
2022-11-23T20:22:04.657Z,86.14
2022-11-23T20:24:32.398Z,86.19
2022-11-23T20:27:00.112Z,86.18
2022-11-23T20:29:32.777Z,86.24
2022-11-23T20:32:01.739Z,86.26
2022-11-23T20:34:30.523Z,86.28
2022-11-23T20:36:59.663Z,86.30
2022-11-23T20:39:27.767Z,86.39
2022-11-23T20:41:57.139Z,86.46
2022-11-23T20:44:33.696Z,86.42
2022-11-23T20:47:03.295Z,86.41
2022-11-23T20:49:33.871Z,86.48
2022-11-23T20:52:01.895Z,86.50
2022-11-23T20:54:30.009Z,86.56
2022-11-23T20:57:01.640Z,86.59
2022-11-23T20:59:30.135Z,86.63
2022-11-23T21:01:58.067Z,86.64
2022-11-23T21:04:26.286Z,86.67
2022-11-23T21:06:54.609Z,86.69
2022-11-23T21:09:23.578Z,86.73
2022-11-23T21:12:10.340Z,86.82
2022-11-23T21:14:38.209Z,86.83
2022-11-23T21:17:06.219Z,86.92
2022-11-23T21:19:40.330Z,86.95
2022-11-23T21:22:12.484Z,86.99
2022-11-23T21:24:41.071Z,87.06
2022-11-23T21:27:12.656Z,87.06
2022-11-23T21:29:45.484Z,87.01
2022-11-23T21:32:15.198Z,87.02
2022-11-23T21:34:43.257Z,87.04
2022-11-23T21:37:12.149Z,87.05
2022-11-23T21:39:41.378Z,87.08
2022-11-23T21:42:09.629Z,87.14
2022-11-23T21:44:37.470Z,87.17
2022-11-23T21:47:08.963Z,87.18
2022-11-23T21:49:38.165Z,87.21
2022-11-23T21:52:05.975Z,87.25
2022-11-23T21:54:37.262Z,87.29
2022-11-23T21:57:08.544Z,87.35
2022-11-23T21:59:36.533Z,87.40
2022-11-23T22:02:04.241Z,87.46
2022-11-23T22:04:32.067Z,87.53
2022-11-23T22:07:00.083Z,87.55
2022-11-23T22:09:29.599Z,87.58
2022-11-23T22:11:57.347Z,87.66
2022-11-23T22:14:26.978Z,87.81
2022-11-23T22:16:56.146Z,87.85
2022-11-23T22:19:24.229Z,88.02
2022-11-23T22:21:51.837Z,88.09
2022-11-23T22:24:21.793Z,88.07
2022-11-23T22:26:49.594Z,88.18
2022-11-23T22:29:17.442Z,88.11
2022-11-23T22:31:45.366Z,88.13
2022-11-23T22:34:13.933Z,88.10
2022-11-23T22:36:42.452Z,88.10
2022-11-23T22:39:11.093Z,88.09
2022-11-23T22:41:39.051Z,88.13
2022-11-23T22:44:09.603Z,88.15
2022-11-23T22:46:39.116Z,88.13
2022-11-23T22:49:07.056Z,88.12
2022-11-23T22:51:35.019Z,88.09
2022-11-23T22:54:03.244Z,88.13
2022-11-23T22:56:31.401Z,88.14
2022-11-23T22:58:59.789Z,88.20
2022-11-23T23:01:30.073Z,88.20
2022-11-23T23:04:00.921Z,88.22
2022-11-23T23:06:35.540Z,88.19
2022-11-23T23:09:06.665Z,88.22
2022-11-23T23:11:36.092Z,88.27
2022-11-23T23:14:04.088Z,88.26
2022-11-23T23:16:32.167Z,88.26
2022-11-23T23:19:00.917Z,88.26
2022-11-23T23:21:29.516Z,88.26
2022-11-23T23:24:00.651Z,88.25
2022-11-23T23:26:28.688Z,88.25
2022-11-23T23:28:58.683Z,88.33
2022-11-23T23:31:27.956Z,88.42
2022-11-23T23:33:56.610Z,88.59
2022-11-23T23:36:25.395Z,88.63
2022-11-23T23:38:53.598Z,88.69
2022-11-23T23:41:21.444Z,88.79
2022-11-23T23:43:50.138Z,88.75
2022-11-23T23:46:18.002Z,88.71
2022-11-23T23:48:46.549Z,88.65
2022-11-23T23:51:24.648Z,88.66
2022-11-23T23:53:53.168Z,88.62
2022-11-23T23:56:24.531Z,88.63
2022-11-23T23:58:55.063Z,88.58
